sensor_id;sensor_type;location;lat;lon;timestamp;P1;durP1;ratioP1;P2;durP2;ratioP2
42666;SDS011;28280;49.646;14.130;2023-04-07T00:00:00;5.97;;;3.50;;
42666;SDS011;28280;49.646;14.130;2023-04-07T00:10:50;6.18;;;3.88;;
42666;SDS011;28280;49.646;14.130;2023-04-07T00:21:11;6.18;;;3.95;;
42666;SDS011;28280;49.646;14.130;2023-04-07T00:31:32;5.50;;;3.80;;
42666;SDS011;28280;49.646;14.130;2023-04-07T00:41:54;6.18;;;3.10;;
42666;SDS011;28280;49.646;14.130;2023-04-07T00:52:16;6.00;;;3.38;;
42666;SDS011;28280;49.646;14.130;2023-04-07T01:02:42;6.38;;;3.28;;
42666;SDS011;28280;49.646;14.130;2023-04-07T01:13:21;5.40;;;3.72;;
42666;SDS011;28280;49.646;14.130;2023-04-07T01:34:50;5.85;;;3.30;;
42666;SDS011;28280;49.646;14.130;2023-04-07T01:45:12;4.60;;;2.95;;
42666;SDS011;28280;49.646;14.130;2023-04-07T01:55:33;6.10;;;3.95;;
42666;SDS011;28280;49.646;14.130;2023-04-07T02:06:01;6.28;;;3.15;;
42666;SDS011;28280;49.646;14.130;2023-04-07T02:16:27;4.55;;;3.15;;
42666;SDS011;28280;49.646;14.130;2023-04-07T02:26:50;5.15;;;3.17;;
42666;SDS011;28280;49.646;14.130;2023-04-07T02:37:11;4.93;;;3.10;;
42666;SDS011;28280;49.646;14.130;2023-04-07T02:47:33;5.45;;;3.03;;
42666;SDS011;28280;49.646;14.130;2023-04-07T02:57:56;4.63;;;2.80;;
42666;SDS011;28280;49.646;14.130;2023-04-07T03:08:44;4.70;;;2.88;;
42666;SDS011;28280;49.646;14.130;2023-04-07T03:19:05;5.32;;;3.22;;
42666;SDS011;28280;49.646;14.130;2023-04-07T03:29:30;4.97;;;3.22;;
42666;SDS011;28280;49.646;14.130;2023-04-07T03:39:51;6.05;;;3.28;;
42666;SDS011;28280;49.646;14.130;2023-04-07T04:01:03;8.43;;;4.43;;
42666;SDS011;28280;49.646;14.130;2023-04-07T04:11:25;7.60;;;4.72;;
42666;SDS011;28280;49.646;14.130;2023-04-07T04:21:51;6.07;;;3.88;;
42666;SDS011;28280;49.646;14.130;2023-04-07T04:32:15;8.10;;;4.60;;
42666;SDS011;28280;49.646;14.130;2023-04-07T04:42:37;7.38;;;4.05;;
42666;SDS011;28280;49.646;14.130;2023-04-07T04:53:01;7.35;;;4.13;;
42666;SDS011;28280;49.646;14.130;2023-04-07T05:03:23;7.93;;;4.75;;
42666;SDS011;28280;49.646;14.130;2023-04-07T05:13:49;7.63;;;3.60;;
42666;SDS011;28280;49.646;14.130;2023-04-07T05:24:11;6.90;;;4.20;;
42666;SDS011;28280;49.646;14.130;2023-04-07T05:34:33;6.80;;;4.60;;
42666;SDS011;28280;49.646;14.130;2023-04-07T05:44:56;7.65;;;4.13;;
42666;SDS011;28280;49.646;14.130;2023-04-07T05:55:20;7.15;;;4.22;;
42666;SDS011;28280;49.646;14.130;2023-04-07T06:05:44;8.15;;;4.93;;
42666;SDS011;28280;49.646;14.130;2023-04-07T06:16:07;7.57;;;4.03;;
42666;SDS011;28280;49.646;14.130;2023-04-07T06:26:30;8.10;;;4.43;;
42666;SDS011;28280;49.646;14.130;2023-04-07T06:36:52;6.28;;;3.97;;
42666;SDS011;28280;49.646;14.130;2023-04-07T06:47:13;7.22;;;4.22;;
42666;SDS011;28280;49.646;14.130;2023-04-07T06:57:34;7.70;;;4.00;;
42666;SDS011;28280;49.646;14.130;2023-04-07T07:07:55;5.90;;;3.97;;
42666;SDS011;28280;49.646;14.130;2023-04-07T07:18:17;6.00;;;3.83;;
42666;SDS011;28280;49.646;14.130;2023-04-07T07:28:38;6.55;;;4.00;;
42666;SDS011;28280;49.646;14.130;2023-04-07T07:39:00;8.77;;;3.88;;
42666;SDS011;28280;49.646;14.130;2023-04-07T07:49:21;7.97;;;4.25;;
42666;SDS011;28280;49.646;14.130;2023-04-07T07:59:42;7.47;;;3.95;;
42666;SDS011;28280;49.646;14.130;2023-04-07T08:10:03;5.90;;;3.65;;
42666;SDS011;28280;49.646;14.130;2023-04-07T08:20:25;6.22;;;3.22;;
42666;SDS011;28280;49.646;14.130;2023-04-07T08:30:47;6.03;;;3.70;;
42666;SDS011;28280;49.646;14.130;2023-04-07T08:41:11;5.07;;;3.28;;
42666;SDS011;28280;49.646;14.130;2023-04-07T08:51:33;4.82;;;3.20;;
42666;SDS011;28280;49.646;14.130;2023-04-07T09:01:54;6.68;;;3.63;;
42666;SDS011;28280;49.646;14.130;2023-04-07T09:12:16;5.72;;;3.17;;
42666;SDS011;28280;49.646;14.130;2023-04-07T09:22:41;6.95;;;3.58;;
42666;SDS011;28280;49.646;14.130;2023-04-07T09:33:05;6.25;;;3.20;;
42666;SDS011;28280;49.646;14.130;2023-04-07T09:43:27;5.57;;;3.47;;
42666;SDS011;28280;49.646;14.130;2023-04-07T09:53:49;6.35;;;3.60;;
42666;SDS011;28280;49.646;14.130;2023-04-07T10:04:11;6.18;;;3.45;;
42666;SDS011;28280;49.646;14.130;2023-04-07T10:14:32;5.13;;;2.90;;
42666;SDS011;28280;49.646;14.130;2023-04-07T10:24:57;5.22;;;3.28;;
42666;SDS011;28280;49.646;14.130;2023-04-07T10:35:24;5.45;;;3.80;;
42666;SDS011;28280;49.646;14.130;2023-04-07T10:56:11;5.78;;;2.92;;
42666;SDS011;28280;49.646;14.130;2023-04-07T11:06:33;5.82;;;3.83;;
42666;SDS011;28280;49.646;14.130;2023-04-07T11:16:54;6.88;;;3.67;;
42666;SDS011;28280;49.646;14.130;2023-04-07T11:27:16;5.75;;;3.70;;
42666;SDS011;28280;49.646;14.130;2023-04-07T11:37:37;5.57;;;3.45;;
42666;SDS011;28280;49.646;14.130;2023-04-07T11:47:58;6.25;;;3.72;;
42666;SDS011;28280;49.646;14.130;2023-04-07T11:58:19;6.68;;;3.75;;
42666;SDS011;28280;49.646;14.130;2023-04-07T12:08:41;5.78;;;3.47;;
42666;SDS011;28280;49.646;14.130;2023-04-07T12:19:03;7.55;;;3.92;;
42666;SDS011;28280;49.646;14.130;2023-04-07T12:29:25;6.35;;;3.90;;
42666;SDS011;28280;49.646;14.130;2023-04-07T12:39:46;6.07;;;3.72;;
42666;SDS011;28280;49.646;14.130;2023-04-07T12:50:07;5.70;;;3.75;;
42666;SDS011;28280;49.646;14.130;2023-04-07T13:00:29;6.45;;;3.80;;
42666;SDS011;28280;49.646;14.130;2023-04-07T13:10:51;8.05;;;4.53;;
42666;SDS011;28280;49.646;14.130;2023-04-07T13:21:12;8.30;;;4.85;;
42666;SDS011;28280;49.646;14.130;2023-04-07T13:31:37;6.88;;;3.92;;
42666;SDS011;28280;49.646;14.130;2023-04-07T13:41:58;7.32;;;4.40;;
42666;SDS011;28280;49.646;14.130;2023-04-07T13:52:19;8.32;;;4.50;;
42666;SDS011;28280;49.646;14.130;2023-04-07T14:02:41;7.47;;;4.57;;
42666;SDS011;28280;49.646;14.130;2023-04-07T14:13:03;6.28;;;4.13;;
42666;SDS011;28280;49.646;14.130;2023-04-07T14:23:24;7.50;;;3.85;;
42666;SDS011;28280;49.646;14.130;2023-04-07T14:33:57;6.90;;;4.18;;
42666;SDS011;28280;49.646;14.130;2023-04-07T14:44:18;7.45;;;4.18;;
42666;SDS011;28280;49.646;14.130;2023-04-07T14:54:39;8.18;;;4.80;;
42666;SDS011;28280;49.646;14.130;2023-04-07T15:05:01;7.13;;;4.22;;
42666;SDS011;28280;49.646;14.130;2023-04-07T15:15:23;7.78;;;5.43;;
42666;SDS011;28280;49.646;14.130;2023-04-07T15:25:44;7.00;;;4.20;;
42666;SDS011;28280;49.646;14.130;2023-04-07T15:36:07;7.60;;;4.72;;
42666;SDS011;28280;49.646;14.130;2023-04-07T15:46:29;8.57;;;3.92;;
42666;SDS011;28280;49.646;14.130;2023-04-07T15:56:52;5.95;;;3.97;;
42666;SDS011;28280;49.646;14.130;2023-04-07T16:07:13;8.93;;;4.63;;
42666;SDS011;28280;49.646;14.130;2023-04-07T16:17:35;7.28;;;4.07;;
42666;SDS011;28280;49.646;14.130;2023-04-07T16:27:58;6.78;;;4.60;;
42666;SDS011;28280;49.646;14.130;2023-04-07T16:38:19;7.13;;;3.63;;
42666;SDS011;28280;49.646;14.130;2023-04-07T16:48:40;6.85;;;3.58;;
42666;SDS011;28280;49.646;14.130;2023-04-07T16:59:02;5.82;;;3.55;;
42666;SDS011;28280;49.646;14.130;2023-04-07T17:09:23;6.35;;;3.88;;
42666;SDS011;28280;49.646;14.130;2023-04-07T17:19:45;6.47;;;3.95;;
42666;SDS011;28280;49.646;14.130;2023-04-07T17:30:06;6.32;;;3.67;;
42666;SDS011;28280;49.646;14.130;2023-04-07T17:40:28;6.32;;;3.67;;
42666;SDS011;28280;49.646;14.130;2023-04-07T17:50:50;5.93;;;3.60;;
42666;SDS011;28280;49.646;14.130;2023-04-07T18:01:12;6.70;;;3.88;;
42666;SDS011;28280;49.646;14.130;2023-04-07T18:11:34;6.45;;;4.30;;
42666;SDS011;28280;49.646;14.130;2023-04-07T18:21:56;6.97;;;4.13;;
42666;SDS011;28280;49.646;14.130;2023-04-07T18:32:17;5.95;;;4.10;;
42666;SDS011;28280;49.646;14.130;2023-04-07T18:42:38;9.50;;;5.22;;
42666;SDS011;28280;49.646;14.130;2023-04-07T18:52:59;7.40;;;4.05;;
42666;SDS011;28280;49.646;14.130;2023-04-07T19:03:21;7.38;;;4.47;;
42666;SDS011;28280;49.646;14.130;2023-04-07T19:13:43;7.10;;;4.13;;
42666;SDS011;28280;49.646;14.130;2023-04-07T19:24:05;8.25;;;4.85;;
42666;SDS011;28280;49.646;14.130;2023-04-07T19:34:26;8.70;;;4.63;;
42666;SDS011;28280;49.646;14.130;2023-04-07T19:44:48;11.63;;;5.93;;
42666;SDS011;28280;49.646;14.130;2023-04-07T19:55:11;8.88;;;4.85;;
42666;SDS011;28280;49.646;14.130;2023-04-07T20:05:33;8.13;;;4.63;;
42666;SDS011;28280;49.646;14.130;2023-04-07T20:15:54;7.35;;;4.95;;
42666;SDS011;28280;49.646;14.130;2023-04-07T20:26:16;7.68;;;4.50;;
42666;SDS011;28280;49.646;14.130;2023-04-07T20:36:37;7.22;;;4.53;;
42666;SDS011;28280;49.646;14.130;2023-04-07T20:46:58;6.53;;;4.30;;
42666;SDS011;28280;49.646;14.130;2023-04-07T20:57:19;8.65;;;4.78;;
42666;SDS011;28280;49.646;14.130;2023-04-07T21:07:40;7.95;;;4.90;;
42666;SDS011;28280;49.646;14.130;2023-04-07T21:18:02;8.82;;;5.25;;
42666;SDS011;28280;49.646;14.130;2023-04-07T21:28:24;7.50;;;4.57;;
42666;SDS011;28280;49.646;14.130;2023-04-07T21:38:46;7.97;;;5.43;;
42666;SDS011;28280;49.646;14.130;2023-04-07T21:49:07;7.43;;;4.95;;
42666;SDS011;28280;49.646;14.130;2023-04-07T21:59:29;10.25;;;5.63;;
42666;SDS011;28280;49.646;14.130;2023-04-07T22:09:51;8.88;;;5.03;;
42666;SDS011;28280;49.646;14.130;2023-04-07T22:20:12;11.95;;;5.78;;
42666;SDS011;28280;49.646;14.130;2023-04-07T22:30:33;6.43;;;4.63;;
42666;SDS011;28280;49.646;14.130;2023-04-07T22:40:55;9.90;;;5.70;;
42666;SDS011;28280;49.646;14.130;2023-04-07T22:51:16;8.63;;;5.22;;
42666;SDS011;28280;49.646;14.130;2023-04-07T23:01:37;7.70;;;4.82;;
42666;SDS011;28280;49.646;14.130;2023-04-07T23:11:59;8.07;;;4.88;;
42666;SDS011;28280;49.646;14.130;2023-04-07T23:22:21;6.50;;;4.50;;
42666;SDS011;28280;49.646;14.130;2023-04-07T23:32:42;9.30;;;5.05;;
42666;SDS011;28280;49.646;14.130;2023-04-07T23:43:03;8.32;;;4.80;;
42666;SDS011;28280;49.646;14.130;2023-04-07T23:53:25;7.95;;;4.78;;
